Time;durP1;ratioP1;P1;durP2;ratioP2;P2;SDS_P1;SDS_P2;PMS_P1;PMS_P2;Temp;Humidity;BMP_temperature;BMP_pressure;BME280_temperature;BME280_humidity;BME280_pressure;Samples;Min_cycle;Max_cycle;Signal;HPM_P1;HPM_P2
2023/08/08 00:01:51;;;;;;;2.20;0.68;;;13.20;99.90;;;12.48;100.00;97858.56;5019299;28;20114;-76
2023/08/08 00:04:18;;;;;;;2.38;0.80;;;13.20;99.90;;;12.26;100.00;97851.72;5020898;28;21062;-76
2023/08/08 00:06:46;;;;;;;3.65;0.70;;;13.10;99.90;;;12.27;100.00;97858.63;5021492;28;20045;-75
2023/08/08 00:09:16;;;;;;;2.53;0.80;;;13.00;99.90;;;12.14;100.00;97860.91;5008263;28;20057;-75
2023/08/08 00:11:43;;;;;;;2.47;0.80;;;13.00;99.90;;;12.15;100.00;97856.56;5018492;28;20147;-75
2023/08/08 00:14:10;;;;;;;2.08;0.82;;;12.90;99.90;;;12.05;100.00;97866.53;5024764;28;20091;-76
2023/08/08 00:16:38;;;;;;;4.50;1.13;;;12.80;99.90;;;11.86;100.00;97863.00;5022017;28;20064;-76
2023/08/08 00:19:05;;;;;;;2.20;0.98;;;12.70;99.90;;;11.71;100.00;97865.34;5020674;28;20049;-76
2023/08/08 00:21:32;;;;;;;1.40;0.68;;;12.60;99.90;;;11.65;100.00;97872.56;5021325;28;20616;-75
2023/08/08 00:24:00;;;;;;;2.55;0.90;;;12.50;99.90;;;11.62;100.00;97872.69;5016300;28;20476;-76
2023/08/08 00:26:27;;;;;;;2.75;0.90;;;12.50;99.90;;;11.67;100.00;97882.00;5019687;28;20053;-76
2023/08/08 00:28:55;;;;;;;2.35;0.90;;;12.40;99.90;;;11.75;100.00;97871.28;5022828;28;20061;-76
2023/08/08 00:31:22;;;;;;;4.38;1.05;;;12.40;99.90;;;11.77;100.00;97868.59;5022483;28;20077;-76
2023/08/08 00:33:49;;;;;;;8.60;1.00;;;12.40;99.90;;;11.87;100.00;97875.97;5022234;28;20045;-75
2023/08/08 00:36:16;;;;;;;3.60;0.90;;;12.40;99.90;;;11.88;100.00;97875.09;5023952;28;20145;-75
2023/08/08 00:38:43;;;;;;;1.98;0.80;;;12.40;99.90;;;11.82;100.00;97872.69;5022195;28;20050;-75
2023/08/08 00:41:11;;;;;;;3.45;0.80;;;12.40;99.90;;;11.90;100.00;97872.41;5020402;28;20041;-76
2023/08/08 00:43:38;;;;;;;2.50;0.77;;;12.40;99.90;;;11.93;100.00;97877.47;5022885;28;20080;-76
2023/08/08 00:46:05;;;;;;;3.78;0.82;;;12.50;99.90;;;11.98;100.00;97872.09;5002923;28;20123;-76
2023/08/08 00:48:32;;;;;;;2.65;1.02;;;12.60;99.90;;;12.00;100.00;97871.09;4992181;28;20057;-76
2023/08/08 00:51:03;;;;;;;3.10;0.90;;;12.60;99.90;;;12.07;100.00;97876.88;5020984;28;20450;-75
2023/08/08 00:53:33;;;;;;;1.65;0.80;;;12.60;99.90;;;12.12;100.00;97877.53;5020199;28;20065;-75
2023/08/08 00:56:00;;;;;;;2.65;0.70;;;12.60;99.90;;;11.99;100.00;97869.41;5032126;28;20045;-76
2023/08/08 00:58:28;;;;;;;2.17;0.70;;;12.70;99.90;;;11.93;100.00;97875.72;5019602;28;20115;-74
2023/08/08 01:00:59;;;;;;;3.92;1.02;;;12.70;99.90;;;11.73;100.00;97868.75;5004056;28;20053;-75
2023/08/08 01:03:27;;;;;;;2.47;0.70;;;12.70;99.90;;;11.75;100.00;97878.25;5018250;28;20045;-75
2023/08/08 01:06:05;;;;;;;4.95;1.00;;;12.60;99.90;;;11.72;100.00;97880.06;5017373;28;20045;-76
2023/08/08 01:08:43;;;;;;;3.38;1.02;;;12.50;99.90;;;11.79;100.00;97877.19;5002224;28;20512;-75
2023/08/08 01:11:13;;;;;;;6.38;1.02;;;12.40;99.90;;;11.61;100.00;97876.19;5018640;28;20049;-75
2023/08/08 01:13:41;;;;;;;1.63;0.80;;;12.40;99.90;;;11.71;100.00;97870.56;5021577;28;20049;-75
2023/08/08 01:16:12;;;;;;;3.05;0.75;;;12.40;99.90;;;11.86;100.00;97873.41;5026274;28;20068;-75
2023/08/08 01:18:40;;;;;;;3.13;0.80;;;12.40;99.90;;;11.87;100.00;97875.09;5007849;28;20050;-76
2023/08/08 01:21:10;;;;;;;3.88;0.93;;;12.40;99.90;;;11.92;100.00;97871.41;5015279;28;20049;-76
2023/08/08 01:23:46;;;;;;;1.25;0.60;;;12.50;99.90;;;12.05;100.00;97869.13;5021635;28;20068;-75
2023/08/08 01:26:14;;;;;;;1.77;0.73;;;12.50;99.90;;;12.12;100.00;97874.91;5019293;28;20195;-75
2023/08/08 01:28:43;;;;;;;3.10;0.98;;;12.60;99.90;;;12.10;100.00;97874.97;5023999;28;20077;-75
2023/08/08 01:31:10;;;;;;;1.95;0.77;;;12.70;99.90;;;11.86;100.00;97868.19;5035895;28;20223;-75
2023/08/08 01:33:38;;;;;;;5.93;1.10;;;12.60;99.90;;;11.71;100.00;97864.50;5019783;28;20541;-75
2023/08/08 01:36:15;;;;;;;1.80;0.70;;;12.60;99.90;;;11.87;100.00;97870.78;5005923;28;20082;-76
2023/08/08 01:38:45;;;;;;;3.83;1.15;;;12.50;99.90;;;11.64;100.00;97870.88;5039100;28;20424;-76
2023/08/08 01:41:14;;;;;;;4.35;1.00;;;12.40;99.90;;;11.70;100.00;97881.88;5018136;28;20054;-75
2023/08/08 01:43:42;;;;;;;1.65;0.90;;;12.40;99.90;;;11.78;100.00;97884.13;5020939;28;20160;-76
2023/08/08 01:46:10;;;;;;;4.90;1.27;;;12.40;99.90;;;11.76;100.00;97891.16;5017333;28;20103;-76
2023/08/08 01:48:37;;;;;;;2.25;1.15;;;12.40;99.90;;;11.77;100.00;97895.47;5023035;28;20896;-76
2023/08/08 01:51:05;;;;;;;3.05;1.00;;;12.40;99.90;;;11.79;100.00;97890.19;5021550;28;20080;-76
2023/08/08 01:53:33;;;;;;;3.03;1.02;;;12.50;99.90;;;11.73;100.00;97896.50;5023480;28;20091;-76
2023/08/08 01:56:00;;;;;;;2.28;1.10;;;12.50;99.90;;;11.77;100.00;97889.41;5019020;28;20056;-74
2023/08/08 01:58:27;;;;;;;2.70;0.90;;;12.60;99.90;;;11.82;100.00;97893.50;5021648;28;20045;-76
2023/08/08 02:00:54;;;;;;;3.22;1.10;;;12.60;99.90;;;11.75;100.00;97892.09;5020552;28;20063;-75
2023/08/08 02:03:21;;;;;;;2.75;0.90;;;12.60;99.90;;;11.83;100.00;97892.59;5023549;28;20391;-75
2023/08/08 02:05:49;;;;;;;2.38;0.95;;;12.60;99.90;;;11.96;100.00;97895.56;5035618;28;20100;-76
2023/08/08 02:08:18;;;;;;;3.97;1.00;;;12.50;99.90;;;11.96;100.00;97892.13;5023046;28;20064;-75
2023/08/08 02:10:45;;;;;;;4.70;0.80;;;12.50;99.90;;;12.06;100.00;97896.00;5036382;28;20136;-76
2023/08/08 02:13:12;;;;;;;2.35;0.90;;;12.50;99.90;;;12.16;100.00;97896.44;5023620;28;20102;-76
2023/08/08 02:15:39;;;;;;;1.65;1.00;;;12.60;99.90;;;12.21;100.00;97894.50;5021933;28;20057;-76
2023/08/08 02:18:08;;;;;;;2.45;0.90;;;12.60;99.90;;;12.05;100.00;97894.31;5021288;28;20129;-76
2023/08/08 02:20:36;;;;;;;1.75;0.90;;;12.60;99.90;;;12.06;100.00;97893.38;5005561;28;20049;-76
2023/08/08 02:23:04;;;;;;;5.03;1.13;;;12.60;99.90;;;11.84;100.00;97885.66;5024408;28;20085;-76
2023/08/08 02:25:32;;;;;;;2.55;1.10;;;12.60;99.90;;;11.81;100.00;97885.75;5022725;28;20057;-76
2023/08/08 02:27:59;;;;;;;2.63;1.10;;;12.60;99.90;;;11.77;100.00;97895.47;5024500;28;20140;-75
2023/08/08 02:30:26;;;;;;;3.55;1.00;;;12.60;99.90;;;11.84;100.00;97901.25;5031684;28;20180;-75
2023/08/08 02:32:54;;;;;;;5.65;1.30;;;12.50;99.90;;;11.79;100.00;97892.78;5026923;28;20053;-75
2023/08/08 02:35:21;;;;;;;4.45;1.20;;;12.50;99.90;;;11.81;100.00;97899.59;5024835;28;20517;-76
2023/08/08 02:37:48;;;;;;;2.65;0.90;;;12.50;99.90;;;11.69;100.00;97893.16;5023136;28;20131;-76
2023/08/08 02:40:15;;;;;;;3.30;1.10;;;12.50;99.90;;;11.73;100.00;97899.94;5023721;28;20050;-75
2023/08/08 02:42:42;;;;;;;5.38;0.98;;;12.50;99.90;;;11.59;100.00;97891.88;5026847;28;20551;-76
2023/08/08 02:45:10;;;;;;;4.63;1.13;;;12.40;99.90;;;11.40;100.00;97896.13;5024398;28;20053;-76
2023/08/08 02:47:37;;;;;;;2.88;1.13;;;12.40;99.90;;;11.35;100.00;97893.72;5025433;28;20049;-76
2023/08/08 02:50:05;;;;;;;7.55;1.55;;;12.30;99.90;;;11.41;100.00;97890.03;5024714;28;20137;-75
2023/08/08 02:52:32;;;;;;;3.78;1.23;;;12.30;99.90;;;11.29;100.00;97894.81;5024448;28;20482;-75
2023/08/08 02:54:59;;;;;;;2.63;1.05;;;12.20;99.90;;;11.38;100.00;97906.63;5009943;28;20584;-76
2023/08/08 02:57:26;;;;;;;2.58;0.95;;;12.20;99.90;;;11.40;100.00;97896.13;5010847;28;20175;-75
2023/08/08 02:59:53;;;;;;;4.35;1.08;;;12.20;99.90;;;11.40;100.00;97902.16;5008209;28;20077;-76
2023/08/08 03:02:21;;;;;;;4.75;1.40;;;12.20;99.90;;;11.23;100.00;97895.06;5023159;28;20049;-75
2023/08/08 03:04:49;;;;;;;3.90;1.33;;;12.10;99.90;;;11.33;100.00;97899.91;5020513;28;20656;-76
2023/08/08 03:07:34;;;;;;;3.45;1.10;;;12.10;99.90;;;11.30;100.00;97906.06;5022496;28;20084;-76
2023/08/08 03:10:03;;;;;;;2.75;1.20;;;12.00;99.90;;;11.19;100.00;97898.69;5009903;28;20060;-76
2023/08/08 03:12:30;;;;;;;6.05;1.30;;;12.00;99.90;;;11.12;100.00;97905.03;5023140;28;20132;-75
2023/08/08 03:14:58;;;;;;;2.97;1.23;;;12.00;99.90;;;11.21;100.00;97901.22;5024012;28;20413;-76
2023/08/08 03:17:25;;;;;;;3.03;1.30;;;11.90;99.90;;;11.18;100.00;97897.00;5024386;28;20057;-76
2023/08/08 03:19:52;;;;;;;4.32;1.33;;;11.90;99.90;;;11.16;100.00;97893.63;5025614;28;22040;-76
2023/08/08 03:22:19;;;;;;;4.78;1.45;;;11.90;99.90;;;11.13;100.00;97898.94;5026828;28;20049;-76
2023/08/08 03:24:46;;;;;;;5.05;1.25;;;11.80;99.90;;;11.09;100.00;97893.03;5023819;28;20057;-76
2023/08/08 03:27:13;;;;;;;4.45;1.33;;;11.80;99.90;;;10.84;100.00;97887.09;5025007;28;20127;-76
2023/08/08 03:29:41;;;;;;;4.18;1.38;;;11.80;99.90;;;10.86;100.00;97887.88;5023117;28;20411;-76
2023/08/08 03:32:08;;;;;;;3.83;1.48;;;11.70;99.90;;;10.89;100.00;97896.41;5024604;28;20128;-75
2023/08/08 03:34:35;;;;;;;3.30;1.48;;;11.70;99.90;;;10.75;100.00;97890.06;5026628;28;20077;-75
2023/08/08 03:37:03;;;;;;;2.78;1.23;;;11.70;99.90;;;10.77;100.00;97890.84;5019297;28;20124;-75
2023/08/08 03:39:30;;;;;;;3.40;1.23;;;11.70;99.90;;;10.69;100.00;97893.72;5027224;28;20403;-75
2023/08/08 03:41:57;;;;;;;1.88;1.00;;;11.60;99.90;;;10.75;100.00;97890.06;5018970;28;20421;-75
2023/08/08 03:44:25;;;;;;;4.78;1.27;;;11.60;99.90;;;10.72;100.00;97890.16;5004906;28;20053;-76
2023/08/08 03:46:55;;;;;;;5.00;1.13;;;11.60;99.90;;;10.65;100.00;97882.63;5004960;28;20065;-76
2023/08/08 03:49:39;;;;;;;5.55;1.20;;;11.50;99.90;;;10.60;100.00;97884.50;5021950;28;20052;-75
2023/08/08 03:52:06;;;;;;;5.43;1.23;;;11.50;99.90;;;10.66;100.00;97878.25;5018908;28;20051;-76
2023/08/08 03:54:34;;;;;;;3.08;1.67;;;11.50;99.90;;;10.58;100.00;97882.88;5009048;28;20710;-76
2023/08/08 03:57:01;;;;;;;4.07;1.20;;;11.50;99.90;;;10.51;100.00;97886.63;5018017;28;20049;-76
2023/08/08 03:59:28;;;;;;;2.45;1.17;;;11.50;99.90;;;10.53;100.00;97888.25;5022114;28;20072;-75
2023/08/08 04:01:55;;;;;;;5.95;1.30;;;11.50;99.90;;;10.47;100.00;97880.72;5025565;28;20107;-75
2023/08/08 04:04:22;;;;;;;4.78;1.33;;;11.30;99.90;;;10.36;100.00;97894.06;5022410;28;20112;-75
2023/08/08 04:06:50;;;;;;;6.72;1.42;;;11.30;99.90;;;10.35;100.00;97894.13;5023729;28;20052;-75
2023/08/08 04:09:17;;;;;;;3.20;1.63;;;11.20;99.90;;;10.21;100.00;97889.41;5036998;28;20124;-75
2023/08/08 04:11:44;;;;;;;6.20;1.35;;;11.10;99.90;;;10.30;100.00;97889.09;5021349;28;20053;-75
2023/08/08 04:14:11;;;;;;;5.32;1.50;;;11.00;99.90;;;10.29;100.00;97884.00;5021181;28;20501;-75
2023/08/08 04:16:39;;;;;;;8.80;1.75;;;11.10;99.90;;;10.16;100.00;97880.94;5021848;28;20108;-76
2023/08/08 04:19:06;;;;;;;6.10;1.60;;;11.00;99.90;;;10.23;100.00;97887.59;5025822;28;20142;-75
2023/08/08 04:21:33;;;;;;;4.43;1.67;;;11.00;99.90;;;10.23;100.00;97890.19;5000110;28;20202;-75
2023/08/08 04:24:02;;;;;;;4.10;1.73;;;11.00;99.90;;;10.23;100.00;97903.16;5004114;28;20049;-75
2023/08/08 04:26:29;;;;;;;4.60;1.85;;;11.00;99.90;;;10.25;100.00;97901.38;5038624;28;20062;-76
2023/08/08 04:28:56;;;;;;;3.45;1.65;;;10.90;99.90;;;10.26;100.00;97900.47;5002657;28;20115;-75
2023/08/08 04:31:25;;;;;;;5.13;1.55;;;11.00;99.90;;;10.22;100.00;97902.34;5019618;28;20108;-75
2023/08/08 04:33:59;;;;;;;4.85;1.48;;;11.00;99.90;;;10.28;100.00;97906.44;5020661;28;20053;-75
2023/08/08 04:36:28;;;;;;;5.65;1.60;;;11.00;99.90;;;10.21;100.00;97892.84;5021638;28;20425;-76
2023/08/08 04:38:56;;;;;;;5.15;1.58;;;11.00;99.90;;;10.31;100.00;97902.91;5022914;28;20037;-75
2023/08/08 04:41:23;;;;;;;4.97;1.33;;;11.00;99.90;;;10.32;100.00;97902.88;5022917;28;20505;-75
2023/08/08 04:43:50;;;;;;;4.57;1.83;;;11.00;99.90;;;10.33;100.00;97890.75;5019918;28;20049;-75
2023/08/08 04:46:18;;;;;;;4.90;1.80;;;10.90;99.90;;;10.34;100.00;97887.25;5021950;28;20490;-76
2023/08/08 04:48:45;;;;;;;7.85;2.22;;;10.90;99.90;;;10.39;100.00;97893.13;5023875;28;20049;-76
2023/08/08 04:51:12;;;;;;;5.35;1.58;;;10.90;99.90;;;10.42;100.00;97885.22;5019723;28;20045;-75
2023/08/08 04:53:39;;;;;;;3.38;1.42;;;10.90;99.90;;;10.42;100.00;97885.22;5020968;28;20418;-76
2023/08/08 04:56:07;;;;;;;9.63;2.13;;;11.00;99.90;;;10.43;100.00;97889.50;5039249;28;20065;-75
2023/08/08 04:58:34;;;;;;;4.85;1.58;;;11.00;99.90;;;10.48;100.00;97895.38;5019885;28;20072;-75
2023/08/08 05:01:02;;;;;;;5.35;2.10;;;11.10;99.90;;;10.42;100.00;97900.78;5023357;28;20056;-76
2023/08/08 05:03:29;;;;;;;4.75;1.88;;;11.10;99.90;;;10.45;100.00;97892.91;5018040;28;20045;-76
2023/08/08 05:05:56;;;;;;;4.18;1.67;;;11.20;99.90;;;10.56;100.00;97900.25;5021448;28;20059;-76
2023/08/08 05:08:23;;;;;;;6.78;1.95;;;11.20;99.90;;;10.59;100.00;97898.41;5004037;28;20601;-75
2023/08/08 05:10:50;;;;;;;8.65;2.08;;;11.20;99.90;;;10.56;100.00;97897.66;5021547;28;20049;-76
2023/08/08 05:13:17;;;;;;;6.72;2.03;;;11.30;99.90;;;10.58;100.00;97896.75;5022575;28;20493;-76
2023/08/08 05:15:45;;;;;;;7.25;2.10;;;11.30;99.90;;;10.78;100.00;97898.56;5004168;28;20053;-75
2023/08/08 05:18:12;;;;;;;4.93;1.88;;;11.30;99.90;;;10.78;100.00;97892.53;5025769;28;20096;-75
2023/08/08 05:20:40;;;;;;;6.25;2.35;;;11.30;99.90;;;10.82;100.00;97884.56;5021532;28;20619;-76
2023/08/08 05:23:07;;;;;;;6.75;1.90;;;11.40;99.90;;;10.82;100.00;97888.91;5021309;28;20158;-75
2023/08/08 05:25:34;;;;;;;3.78;1.85;;;11.50;99.90;;;11.05;100.00;97893.22;5010277;28;20111;-76
2023/08/08 05:28:01;;;;;;;4.32;2.10;;;11.50;99.90;;;11.23;100.00;97889.03;5021952;28;20518;-76
2023/08/08 05:30:28;;;;;;;5.43;1.63;;;11.60;99.90;;;11.43;100.00;97890.84;5019198;28;20486;-76
2023/08/08 05:32:56;;;;;;;4.78;1.88;;;11.70;99.90;;;11.37;100.00;97875.47;5009594;28;20506;-76
2023/08/08 05:35:23;;;;;;;4.20;1.52;;;11.80;99.90;;;11.60;100.00;97883.16;5035777;28;20045;-75
2023/08/08 05:37:50;;;;;;;7.40;1.90;;;12.00;99.90;;;11.49;100.00;97880.16;5019036;28;20077;-75
2023/08/08 05:40:17;;;;;;;6.57;1.95;;;12.00;99.90;;;11.67;100.00;97886.34;5019625;28;20053;-75
2023/08/08 05:42:44;;;;;;;4.03;1.58;;;12.10;99.90;;;11.83;100.00;97886.53;5017901;28;20104;-75
2023/08/08 05:45:11;;;;;;;6.93;1.95;;;12.10;99.90;;;11.95;100.00;97887.81;5020498;28;20161;-75
2023/08/08 05:47:38;;;;;;;4.40;1.58;;;12.20;99.90;;;11.91;100.00;97874.94;5007070;28;20144;-76
2023/08/08 05:50:06;;;;;;;3.88;1.58;;;12.20;99.90;;;11.89;100.00;97874.16;5022722;28;20083;-76
2023/08/08 05:52:34;;;;;;;4.43;1.60;;;12.30;99.90;;;11.89;100.00;97876.75;5001491;28;20050;-75
2023/08/08 05:55:01;;;;;;;4.97;1.90;;;12.40;99.90;;;11.93;100.00;97875.72;5022457;28;20157;-76
2023/08/08 05:57:28;;;;;;;5.53;1.63;;;12.40;99.90;;;12.05;100.00;97879.53;5017958;28;20168;-76
2023/08/08 05:59:55;;;;;;;5.18;1.73;;;12.50;99.90;;;12.07;100.00;97874.28;5036402;28;20061;-76
2023/08/08 06:02:23;;;;;;;5.80;1.65;;;12.50;99.90;;;12.24;100.00;97874.38;5018017;28;20571;-76
2023/08/08 06:04:50;;;;;;;5.45;1.98;;;12.60;99.90;;;12.18;100.00;97868.59;5021108;28;20037;-76
2023/08/08 06:07:17;;;;;;;4.90;1.50;;;12.60;99.90;;;12.40;100.00;97873.69;5017587;28;20135;-76
2023/08/08 06:09:45;;;;;;;6.97;1.70;;;12.70;99.90;;;12.24;100.00;97863.94;5016914;28;20164;-75
2023/08/08 06:12:12;;;;;;;6.47;1.42;;;12.70;99.90;;;12.56;100.00;97864.25;5016163;28;20065;-76
2023/08/08 06:14:39;;;;;;;5.13;1.42;;;13.00;99.90;;;12.62;100.00;97852.72;5019277;28;20049;-76
2023/08/08 06:17:06;;;;;;;14.63;1.95;;;13.10;99.90;;;12.57;100.00;97850.34;5016809;28;20849;-76
2023/08/08 06:19:34;;;;;;;5.32;1.33;;;13.00;99.90;;;12.62;100.00;97852.72;5016071;28;20053;-76
2023/08/08 06:22:03;;;;;;;4.18;1.25;;;13.10;99.90;;;12.90;100.00;97844.44;5018440;28;20077;-76
2023/08/08 06:24:31;;;;;;;3.45;1.10;;;13.10;99.90;;;12.68;100.00;97848.06;5018022;28;20049;-76
2023/08/08 06:26:59;;;;;;;5.38;1.45;;;13.10;99.90;;;12.85;100.00;97847.28;5022286;28;20065;-76
2023/08/08 06:29:27;;;;;;;5.15;1.48;;;13.10;99.90;;;12.76;100.00;97838.13;5033819;28;20125;-76
2023/08/08 06:31:55;;;;;;;3.65;1.35;;;13.20;99.90;;;12.94;100.00;97828.59;5018143;28;20096;-76
2023/08/08 06:34:22;;;;;;;3.38;1.45;;;13.30;99.90;;;13.10;100.00;97823.47;5020811;28;20054;-76
2023/08/08 06:36:49;;;;;;;2.70;1.20;;;13.40;99.90;;;13.35;100.00;97825.75;5002139;28;20149;-76
2023/08/08 06:39:19;;;;;;;4.95;1.33;;;13.50;99.90;;;13.33;100.00;97804.13;5019426;28;20123;-76
2023/08/08 06:41:46;;;;;;;5.55;1.67;;;13.60;99.90;;;13.29;100.00;97804.34;5021065;28;20117;-76
2023/08/08 06:44:15;;;;;;;4.55;1.20;;;13.70;99.90;;;13.41;100.00;97792.47;5019141;28;20052;-76
2023/08/08 06:46:43;;;;;;;7.82;1.63;;;13.80;99.90;;;13.30;100.00;97790.41;5019430;28;20567;-76
2023/08/08 06:49:10;;;;;;;2.75;1.00;;;13.90;99.90;;;13.85;100.00;97794.56;5021989;28;20076;-76
2023/08/08 06:51:37;;;;;;;5.55;1.42;;;14.10;99.90;;;13.79;100.00;97785.28;5019478;28;20157;-76
2023/08/08 06:54:05;;;;;;;3.10;1.02;;;14.00;99.90;;;13.69;100.00;97777.09;5021518;28;20049;-76
2023/08/08 06:56:32;;;;;;;5.10;1.10;;;14.00;99.90;;;13.69;100.00;97769.28;5027074;28;20060;-76
2023/08/08 06:59:00;;;;;;;4.28;1.05;;;14.10;99.90;;;13.93;100.00;97768.91;5026013;28;20184;-75
2023/08/08 07:01:26;;;;;;;5.32;1.00;;;14.30;99.90;;;14.04;100.00;97771.78;5014684;28;20053;-76
2023/08/08 07:03:54;;;;;;;4.22;1.13;;;14.30;99.90;;;14.16;100.00;97768.53;5022466;28;20050;-76
2023/08/08 07:06:21;;;;;;;3.97;1.27;;;14.40;99.90;;;14.18;100.00;97773.66;5001123;28;20052;-76
2023/08/08 07:08:48;;;;;;;3.80;1.30;;;14.40;99.90;;;14.09;100.00;97755.88;5023058;28;20057;-76
2023/08/08 07:11:15;;;;;;;5.18;0.98;;;14.50;99.90;;;14.20;100.00;97758.75;5018009;28;20053;-76
2023/08/08 07:13:42;;;;;;;3.97;1.10;;;14.60;99.90;;;14.31;100.00;97760.78;5035126;28;20143;-76
2023/08/08 07:16:09;;;;;;;4.80;1.35;;;14.70;99.90;;;14.42;100.00;97753.22;5021105;28;20148;-76
2023/08/08 07:18:37;;;;;;;4.68;1.05;;;14.70;99.90;;;14.59;100.00;97739.22;5037087;28;20042;-76
2023/08/08 07:21:05;;;;;;;4.95;1.08;;;14.90;99.90;;;14.47;100.00;97732.06;5020863;28;20049;-76
2023/08/08 07:23:35;;;;;;;6.35;1.20;;;15.00;99.90;;;14.40;100.00;97728.94;5025366;28;20337;-76
2023/08/08 07:26:02;;;;;;;8.40;1.50;;;15.00;99.90;;;14.25;100.00;97725.41;5026094;28;20136;-76
2023/08/08 07:28:30;;;;;;;3.90;1.20;;;15.10;99.90;;;14.57;100.00;97731.50;5023824;28;20061;-76
2023/08/08 07:30:57;;;;;;;3.08;0.80;;;15.10;99.90;;;14.82;100.00;97746.63;5020810;28;20099;-77
2023/08/08 07:33:24;;;;;;;3.75;1.10;;;15.10;99.90;;;14.84;100.00;97731.66;5020630;28;20085;-76
2023/08/08 07:35:51;;;;;;;4.88;1.38;;;15.10;99.90;;;14.91;100.00;97728.72;5005088;28;20670;-76
2023/08/08 07:38:18;;;;;;;5.68;1.60;;;15.20;99.90;;;14.99;100.00;97737.81;5019934;28;20119;-76
2023/08/08 07:40:45;;;;;;;6.15;1.10;;;15.30;99.90;;;15.06;100.00;97733.91;5019248;28;20053;-76
2023/08/08 07:43:15;;;;;;;3.83;0.95;;;15.20;99.90;;;15.51;100.00;97720.81;5021162;28;20465;-76
2023/08/08 07:45:42;;;;;;;5.47;0.93;;;15.40;99.90;;;15.38;100.00;97727.72;5005619;28;20085;-76
2023/08/08 07:48:12;;;;;;;6.97;1.08;;;15.50;99.90;;;15.50;100.00;97716.50;5022138;28;20056;-76
2023/08/08 07:50:39;;;;;;;6.43;1.00;;;15.60;99.90;;;15.26;100.00;97721.44;5019823;28;20127;-76
2023/08/08 07:53:06;;;;;;;4.80;1.10;;;15.70;99.90;;;15.33;100.00;97722.75;5021910;28;20049;-77
2023/08/08 07:55:33;;;;;;;3.17;1.00;;;15.80;99.90;;;15.23;100.00;97721.59;5037156;28;20081;-77
2023/08/08 07:58:01;;;;;;;5.40;0.98;;;15.80;99.90;;;15.36;100.00;97727.78;5037496;28;20057;-76
2023/08/08 08:00:28;;;;;;;3.15;0.90;;;15.90;99.90;;;15.53;100.00;97726.81;5021323;28;20059;-76
2023/08/08 08:02:56;;;;;;;4.90;1.20;;;15.80;99.90;;;15.72;100.00;97720.47;5020820;28;20053;-76
2023/08/08 08:05:23;;;;;;;10.90;1.42;;;15.80;99.90;;;16.08;100.00;97725.22;5022136;28;20053;-76
2023/08/08 08:07:50;;;;;;;5.80;1.10;;;16.00;99.90;;;15.82;100.00;97726.81;5021956;28;20136;-76
2023/08/08 08:10:17;;;;;;;4.80;1.00;;;16.10;99.90;;;15.88;100.00;97731.69;5021423;28;20053;-75
2023/08/08 08:12:44;;;;;;;6.68;1.42;;;16.10;99.90;;;15.72;100.00;97713.47;5021098;28;20080;-76
2023/08/08 08:15:13;;;;;;;6.95;1.42;;;16.00;99.90;;;15.71;100.00;97721.41;5036048;28;20045;-76
2023/08/08 08:17:41;;;;;;;6.55;1.20;;;16.00;99.90;;;15.60;100.00;97714.16;5021815;28;20569;-76
2023/08/08 08:20:11;;;;;;;4.35;0.90;;;16.00;99.90;;;15.75;100.00;97733.38;5018036;28;20068;-77
2023/08/08 08:22:39;;;;;;;4.38;1.20;;;15.90;99.90;;;16.24;100.00;97723.31;5021780;28;20191;-76
2023/08/08 08:25:10;;;;;;;4.70;1.25;;;16.00;99.90;;;16.15;100.00;97718.66;5019479;28;20187;-76
2023/08/08 08:27:37;;;;;;;4.30;1.13;;;16.20;99.90;;;16.49;100.00;97711.28;5021851;28;20055;-77
2023/08/08 08:30:06;;;;;;;3.63;1.27;;;16.30;99.90;;;16.79;100.00;97718.94;5021987;28;20046;-76
2023/08/08 08:32:38;;;;;;;5.60;1.10;;;16.40;99.90;;;16.84;100.00;97711.63;5022595;28;20049;-77
2023/08/08 08:35:07;;;;;;;2.35;0.95;;;16.50;99.90;;;16.93;100.00;97721.50;5023164;28;20056;-77
2023/08/08 08:37:35;;;;;;;5.45;1.23;;;16.60;99.90;;;17.63;100.00;97704.56;5021238;28;20434;-76
2023/08/08 08:40:06;;;;;;;2.60;0.93;;;16.80;99.90;;;17.27;100.00;97708.75;5004974;28;20045;-76
2023/08/08 08:42:34;;;;;;;3.83;1.20;;;17.00;99.90;;;17.50;100.00;97703.72;5001651;28;20053;-77
2023/08/08 08:45:04;;;;;;;4.07;1.00;;;;;;;18.03;100.00;97707.03;5002608;28;20449;-76
2023/08/08 08:47:35;;;;;;;3.25;0.70;;;17.50;99.90;;;18.34;100.00;97702.22;5020064;28;20860;-76
2023/08/08 08:50:04;;;;;;;3.47;1.05;;;18.10;99.90;;;18.55;100.00;97726.13;5021372;28;20751;-77
2023/08/08 08:52:31;;;;;;;3.13;0.70;;;18.00;99.90;;;18.16;100.00;97728.88;5034873;28;20115;-76
2023/08/08 08:54:58;;;;;;;2.72;0.80;;;18.20;99.90;;;18.09;100.00;97726.78;5020802;28;20045;-77
2023/08/08 08:57:33;;;;;;;6.22;0.98;;;18.30;99.90;;;18.85;100.00;97698.56;5018943;28;20525;-76
2023/08/08 09:00:00;;;;;;;3.15;0.80;;;18.50;99.90;;;18.76;100.00;97707.94;5017877;28;20111;-77
2023/08/08 09:02:27;;;;;;;3.55;0.80;;;19.00;99.90;;;18.60;100.00;97716.09;5020616;28;20076;-77
2023/08/08 09:04:54;;;;;;;2.90;0.80;;;19.10;99.90;;;18.62;100.00;97695.78;5020432;28;20122;-77
2023/08/08 09:07:26;;;;;;;3.63;0.80;;;19.30;99.90;;;18.89;100.00;97700.00;5025063;28;20132;-77
2023/08/08 09:09:53;;;;;;;4.50;1.05;;;19.40;99.90;;;18.16;100.00;97686.84;5034173;28;20053;-77
2023/08/08 09:12:21;;;;;;;5.28;0.85;;;19.30;99.90;;;18.58;100.00;97703.06;5025439;28;20069;-77
2023/08/08 09:14:57;;;;;;;3.95;0.90;;;19.30;99.90;;;19.40;100.00;97691.75;5021863;28;20042;-77
2023/08/08 09:17:27;;;;;;;3.83;0.80;;;19.20;99.90;;;19.51;100.00;97701.47;5020885;28;20045;-77
2023/08/08 09:20:14;;;;;;;2.67;0.90;;;19.70;99.90;;;19.88;100.00;97699.44;5024016;28;20075;-77
2023/08/08 09:22:41;;;;;;;3.47;0.77;;;20.10;99.90;;;19.72;100.00;97689.28;5037018;28;20498;-77
2023/08/08 09:25:08;;;;;;;3.55;1.10;;;20.10;99.90;;;18.34;100.00;97676.78;5020823;28;20049;-77
2023/08/08 09:27:36;;;;;;;2.65;0.80;;;20.00;99.90;;;19.12;100.00;97701.75;5035532;28;20159;-77
2023/08/08 09:30:04;;;;;;;2.83;0.75;;;19.30;99.90;;;18.72;100.00;97694.16;5024674;28;20054;-77
2023/08/08 09:32:34;;;;;;;2.92;0.80;;;19.00;99.90;;;19.15;100.00;97692.78;5004801;28;20501;-77
2023/08/08 09:35:02;;;;;;;3.50;0.85;;;19.70;99.90;;;19.67;100.00;97693.22;5021048;28;20123;-77
2023/08/08 09:37:30;;;;;;;4.38;1.35;;;20.00;99.90;;;19.61;100.00;97694.50;5022963;28;20154;-77
2023/08/08 09:39:58;;;;;;;3.97;0.70;;;20.40;99.90;;;19.70;100.00;97695.63;5019507;28;20973;-76
2023/08/08 09:42:29;;;;;;;4.45;0.93;;;20.30;99.90;;;19.52;100.00;97684.69;5006744;28;20381;-77
2023/08/08 09:44:57;;;;;;;3.95;0.80;;;20.30;99.90;;;19.81;100.00;97696.47;5032959;28;20829;-77
2023/08/08 09:47:30;;;;;;;4.10;1.00;;;20.00;99.90;;;19.22;100.00;97688.72;5020489;28;20058;-76
2023/08/08 09:50:04;;;;;;;2.60;0.98;;;20.30;99.90;;;19.76;100.00;97695.16;5017606;28;20532;-77
2023/08/08 09:52:35;;;;;;;3.72;0.98;;;19.80;99.90;;;19.16;100.00;97699.72;5035493;28;20064;-77
2023/08/08 09:55:03;;;;;;;3.00;1.05;;;20.00;99.90;;;19.25;100.00;97683.25;5019067;28;20081;-77
2023/08/08 09:57:32;;;;;;;3.80;0.98;;;20.00;99.90;;;20.11;100.00;97686.25;5018528;28;20065;-77
2023/08/08 10:00:01;;;;;;;3.75;0.80;;;20.40;99.90;;;20.25;100.00;97683.34;5002978;28;20282;-77
2023/08/08 10:02:30;;;;;;;4.35;0.90;;;20.40;99.90;;;20.44;100.00;97685.34;5034639;28;20041;-77
2023/08/08 10:04:58;;;;;;;3.05;1.23;;;20.70;99.90;;;20.22;100.00;97684.44;5018090;28;20139;-77
2023/08/08 10:07:25;;;;;;;5.47;1.15;;;20.90;99.90;;;19.17;100.00;97691.69;5020968;28;20056;-76
2023/08/08 10:09:52;;;;;;;2.65;0.90;;;20.70;99.90;;;20.50;100.00;97692.75;5012103;28;20083;-76
2023/08/08 10:12:20;;;;;;;2.90;0.73;;;20.40;99.90;;;20.89;100.00;97672.88;5020427;28;20136;-76
2023/08/08 10:14:47;;;;;;;1.95;0.80;;;20.70;99.90;;;21.03;100.00;97681.44;5016802;28;20480;-77
2023/08/08 10:17:16;;;;;;;5.30;0.95;;;21.00;99.90;;;21.79;100.00;97683.81;5019349;28;20061;-76